Time;durP1;ratioP1;P1;durP2;ratioP2;P2;SDS_P1;SDS_P2;PMS_P1;PMS_P2;Temp;Humidity;BMP_temperature;BMP_pressure;BME280_temperature;BME280_humidity;BME280_pressure;Samples;Min_cycle;Max_cycle;Signal;HPM_P1;HPM_P2
2023/07/01 00:00:23;;;;;;;12.57;11.40;;;;;;;16.43;100.00;100385.97;4854364;29;20853;-68
2023/07/01 00:03:03;;;;;;;8.30;7.60;;;;;;;16.39;100.00;100390.28;4854696;29;20498;-67
2023/07/01 00:05:34;;;;;;;16.40;9.33;;;;;;;16.38;100.00;100383.16;4845658;29;20562;-68
2023/07/01 00:08:05;;;;;;;8.93;8.03;;;;;;;16.48;100.00;100386.03;4851941;29;20447;-71
2023/07/01 00:10:37;;;;;;;7.60;6.90;;;;;;;16.44;100.00;100376.69;4852654;29;20515;-67
2023/07/01 00:13:09;;;;;;;7.83;7.03;;;;;;;16.44;100.00;100388.44;4845340;29;20488;-70
2023/07/01 00:15:42;;;;;;;11.70;9.70;;;;;;;16.58;100.00;100383.47;4860571;29;20424;-67
2023/07/01 00:18:13;;;;;;;10.33;7.90;;;;;;;16.69;100.00;100379.78;4853039;29;20801;-68
2023/07/01 00:20:44;;;;;;;11.07;8.33;;;;;;;17.08;100.00;100383.25;4845094;29;20448;-68
2023/07/01 00:23:16;;;;;;;7.83;6.73;;;;;;;17.08;100.00;100376.94;4842825;29;20998;-68
2023/07/01 00:25:47;;;;;;;8.77;7.77;;;;;;;17.06;100.00;100373.63;4863278;29;20472;-69
2023/07/01 00:28:18;;;;;;;8.63;7.33;;;;;;;16.97;100.00;100372.44;4845555;23;20475;-72
2023/07/01 00:30:49;;;;;;;10.90;7.87;;;;;;;16.89;100.00;100376.47;4825073;29;20442;-74
2023/07/01 00:33:19;;;;;;;7.10;6.50;;;;;;;16.89;100.00;100380.00;4834139;29;20495;-73
2023/07/01 00:35:48;;;;;;;11.53;8.53;;;;;;;16.91;100.00;100375.13;4832348;29;20444;-71
2023/07/01 00:38:17;;;;;;;7.53;6.70;;;;;;;17.04;100.00;100373.06;4832791;29;20440;-74
2023/07/01 00:40:46;;;;;;;9.00;7.80;;;;;;;17.04;100.00;100375.81;4826476;29;20506;-73
2023/07/01 00:43:16;;;;;;;9.90;9.00;;;;;;;17.16;100.00;100374.56;4837134;29;20418;-73
2023/07/01 00:45:46;;;;;;;8.80;7.60;;;;;;;17.16;100.00;100374.56;4825816;29;21055;-72
2023/07/01 00:48:25;;;;;;;7.90;7.20;;;;;;;17.26;100.00;100369.19;4826705;29;20918;-71
2023/07/01 00:50:55;;;;;;;9.57;8.40;;;;;;;17.26;100.00;100366.47;4829571;29;20927;-73
2023/07/01 00:53:24;;;;;;;9.23;7.60;;;;;;;17.22;100.00;100361.78;4833862;29;20817;-72
2023/07/01 00:55:54;;;;;;;7.90;7.20;;;;;;;17.28;100.00;100366.22;4834234;29;20446;-71
2023/07/01 00:58:23;;;;;;;8.00;7.20;;;;;;;17.30;100.00;100356.66;4833363;29;20469;-72
2023/07/01 01:00:56;;;;;;;8.37;7.60;;;;;;;17.21;100.00;100357.38;4826725;29;20524;-71
2023/07/01 01:03:34;;;;;;;7.87;7.07;;;;;;;17.15;100.00;100352.94;4834836;29;20444;-72
2023/07/01 01:06:08;;;;;;;9.10;8.20;;;;;;;17.24;100.00;100354.13;4826347;29;20452;-71
2023/07/01 01:08:45;;;;;;;9.37;7.60;;;;;;;17.35;100.00;100344.94;4823832;29;20413;-76
2023/07/01 01:11:16;;;;;;;7.80;7.10;;;;;;;17.20;100.00;100342.06;4827475;29;20489;-72
2023/07/01 01:13:47;;;;;;;9.40;8.50;;;;;;;17.12;100.00;100337.06;4832174;29;20798;-72
2023/07/01 01:16:17;;;;;;;8.77;7.87;;;;;;;17.10;100.00;100331.03;4830405;29;20413;-72
2023/07/01 01:18:49;;;;;;;8.43;7.63;;;;;;;17.03;100.00;100328.50;4829919;29;20416;-73
2023/07/01 01:21:21;;;;;;;9.00;8.10;;;;;;;16.97;100.00;100328.72;4849726;29;20576;-72
2023/07/01 01:23:57;;;;;;;9.60;8.70;;;;;;;16.84;100.00;100325.31;4827139;29;20419;-72
2023/07/01 01:26:29;;;;;;;12.30;9.00;;;;;;;16.84;100.00;100322.59;4834767;29;20498;-72
2023/07/01 01:29:00;;;;;;;13.93;9.93;;;;;;;16.73;100.00;100323.53;4830828;29;20445;-73
2023/07/01 01:31:29;;;;;;;9.83;8.83;;;;;;;16.63;100.00;100312.50;4864850;29;20415;-76
2023/07/01 01:33:58;;;;;;;22.70;20.30;;;;;;;16.67;100.00;100319.09;4838601;29;20428;-73
2023/07/01 01:36:38;;;;;;;8.97;8.13;;;;;;;16.63;100.00;100315.22;4833326;29;20467;-72
2023/07/01 01:39:11;;;;;;;9.77;8.87;;;;;;;16.65;100.00;100318.56;4827571;29;20450;-73
2023/07/01 01:41:44;;;;;;;9.00;8.20;;;;;;;16.62;100.00;100307.28;4830397;29;20495;-72
2023/07/01 01:44:20;;;;;;;8.20;7.23;;;;;;;16.82;100.00;100313.81;4827288;29;20421;-73
2023/07/01 01:46:49;;;;;;;11.23;10.20;;;;;;;16.80;100.00;100302.28;4836347;29;20459;-73
2023/07/01 01:49:20;;;;;;;9.70;7.97;;;;;;;16.83;100.00;100300.97;4827352;29;20446;-73
2023/07/01 01:51:49;;;;;;;13.30;11.97;;;;;;;16.71;100.00;100301.09;4822649;29;20755;-74
2023/07/01 01:54:21;;;;;;;10.10;9.20;;;;;;;16.73;100.00;100303.59;4824535;29;20421;-72
2023/07/01 01:56:51;;;;;;;15.10;9.70;;;;;;;16.71;100.00;100297.53;4824166;29;20440;-73
2023/07/01 01:59:22;;;;;;;8.93;8.10;;;;;;;16.74;100.00;100294.31;4831767;29;20456;-71
2023/07/01 02:01:52;;;;;;;8.20;7.47;;;;;;;16.73;100.00;100288.03;4823266;29;20441;-73
2023/07/01 02:04:21;;;;;;;10.60;9.50;;;;;;;16.81;100.00;100284.81;4834213;29;20444;-73
2023/07/01 02:06:51;;;;;;;10.93;7.53;;;;;;;16.73;100.00;100290.75;4835759;29;20471;-72
2023/07/01 02:09:20;;;;;;;10.03;8.93;;;;;;;16.68;100.00;100295.34;4827805;29;20555;-72
2023/07/01 02:11:49;;;;;;;11.77;10.57;;;;;;;16.62;100.00;100285.44;4823667;29;20452;-73
2023/07/01 02:14:18;;;;;;;15.50;12.23;;;;;;;16.58;100.00;100282.41;4828041;29;20536;-72
2023/07/01 02:16:48;;;;;;;12.80;11.73;;;;;;;16.57;100.00;100277.97;4824049;29;21015;-72
2023/07/01 02:19:18;;;;;;;10.57;9.47;;;;;;;16.56;100.00;100276.31;4829394;29;20412;-72
2023/07/01 02:21:47;;;;;;;18.13;16.53;;;;;;;16.62;100.00;100275.34;4823419;29;20449;-73
2023/07/01 02:24:16;;;;;;;14.47;11.30;;;;;;;16.58;100.00;100274.19;4833185;29;20507;-71
2023/07/01 02:26:45;;;;;;;9.40;8.53;;;;;;;16.70;100.00;100283.06;4840391;29;20490;-73
2023/07/01 02:29:14;;;;;;;11.00;9.90;;;;;;;16.70;100.00;100274.88;4828581;29;20408;-72
2023/07/01 02:31:43;;;;;;;9.87;8.93;;;;;;;16.74;100.00;100273.28;4826402;29;20443;-76
2023/07/01 02:34:14;;;;;;;12.03;10.83;;;;;;;16.76;100.00;100275.75;4830272;29;20428;-72
2023/07/01 02:36:43;;;;;;;9.50;8.70;;;;;;;16.85;100.00;100274.19;4824756;29;20465;-72
2023/07/01 02:39:12;;;;;;;10.83;9.13;;;;;;;17.08;100.00;100273.91;4832660;29;20418;-72
2023/07/01 02:41:41;;;;;;;10.13;9.07;;;;;;;17.01;100.00;100277.91;4846451;29;20392;-74
2023/07/01 02:44:11;;;;;;;10.93;10.00;;;;;;;16.98;100.00;100267.50;4852110;29;20415;-75
2023/07/01 02:46:40;;;;;;;10.43;9.47;;;;;;;16.97;100.00;100265.84;4845624;29;20484;-75
2023/07/01 02:49:09;;;;;;;11.23;10.07;;;;;;;17.02;100.00;100263.16;4853276;29;20420;-75
2023/07/01 02:51:41;;;;;;;10.10;9.30;;;;;;;17.07;100.00;100264.03;4851281;29;20455;-76
2023/07/01 02:54:10;;;;;;;9.50;8.63;;;;;;;17.17;100.00;100252.38;4845118;29;20449;-75
2023/07/01 02:56:39;;;;;;;10.60;9.70;;;;;;;17.22;100.00;100247.75;4846149;29;20432;-74
2023/07/01 02:59:08;;;;;;;11.70;10.60;;;;;;;17.20;100.00;100262.75;4855936;29;20428;-75
2023/07/01 03:01:37;;;;;;;11.37;10.13;;;;;;;17.23;100.00;100256.78;4851606;29;20458;-76
2023/07/01 03:04:07;;;;;;;9.93;9.13;;;;;;;17.27;100.00;100255.19;4857867;29;20896;-73
2023/07/01 03:06:49;;;;;;;9.97;9.07;;;;;;;17.29;100.00;100253.00;4863830;29;20515;-73
2023/07/01 03:09:18;;;;;;;13.03;10.13;;;;;;;17.31;100.00;100250.84;4856750;29;20417;-74
2023/07/01 03:11:47;;;;;;;13.10;11.73;;;;;;;17.23;100.00;100249.38;4855155;29;20440;-75
2023/07/01 03:14:16;;;;;;;10.80;10.00;;;;;;;17.15;100.00;100243.59;4855224;29;20495;-75
2023/07/01 03:16:46;;;;;;;9.70;8.80;;;;;;;17.05;100.00;100235.28;4854963;29;20465;-77
2023/07/01 03:19:15;;;;;;;10.43;9.43;;;;;;;17.08;100.00;100241.09;4845112;29;20433;-74
2023/07/01 03:21:45;;;;;;;12.30;11.10;;;;;;;17.10;100.00;100232.59;4850610;29;20666;-76
2023/07/01 03:24:17;;;;;;;11.00;10.00;;;;;;;17.06;100.00;100231.50;4850199;29;20435;-76
2023/07/01 03:26:46;;;;;;;10.50;9.60;;;;;;;17.02;100.00;100230.38;4842414;29;20473;-76
2023/07/01 03:29:16;;;;;;;9.37;8.47;;;;;;;17.00;100.00;100229.78;4851344;29;20424;-78
2023/07/01 03:31:45;;;;;;;12.57;10.80;;;;;;;17.02;100.00;100235.81;4867635;29;20431;-75
2023/07/01 03:34:15;;;;;;;12.13;10.93;;;;;;;17.07;100.00;100233.97;4844260;29;20388;-75
2023/07/01 03:36:44;;;;;;;10.50;9.60;;;;;;;17.03;100.00;100237.47;4854686;29;20475;-74
2023/07/01 03:39:13;;;;;;;10.73;9.73;;;;;;;16.97;100.00;100230.31;4844299;29;20466;-76
2023/07/01 03:41:44;;;;;;;15.00;11.07;;;;;;;17.06;100.00;100234.22;4859387;29;20470;-78
2023/07/01 03:44:13;;;;;;;12.73;10.30;;;;;;;17.16;100.00;100231.56;4845447;29;20400;-77
2023/07/01 03:46:42;;;;;;;12.00;10.80;;;;;;;17.14;100.00;100236.47;4857255;29;20466;-75
2023/07/01 03:49:13;;;;;;;10.20;9.30;;;;;;;17.19;100.00;100239.25;4843267;29;20405;-75
2023/07/01 03:51:41;;;;;;;9.80;9.00;;;;;;;17.25;100.00;100243.66;4846139;29;20871;-74
2023/07/01 03:54:10;;;;;;;14.83;10.57;;;;;;;17.33;100.00;100243.22;4847413;29;20403;-75
2023/07/01 03:56:39;;;;;;;14.70;13.23;;;;;;;17.35;100.00;100235.53;4844422;29;20469;-72
2023/07/01 03:59:10;;;;;;;13.07;11.87;;;;;;;17.43;100.00;100237.78;4828034;29;20444;-72
2023/07/01 04:01:39;;;;;;;14.10;10.50;;;;;;;17.65;100.00;100238.53;4829894;29;20511;-75
2023/07/01 04:04:08;;;;;;;10.80;9.90;;;;;;;18.06;100.00;100244.19;4846849;29;20473;-76
2023/07/01 04:06:37;;;;;;;10.13;9.33;;;;;;;18.43;96.22;100236.69;4846635;29;20508;-74
2023/07/01 04:09:12;;;;;;;12.50;9.67;;;;;;;18.66;94.82;100249.91;4829499;29;20450;-73
2023/07/01 04:11:42;;;;;;;9.93;8.87;;;;;;;18.91;94.17;100234.63;4831896;29;20448;-73
2023/07/01 04:14:17;;;;;;;10.93;9.93;;;;;;;19.92;88.36;100237.25;4831149;29;20972;-73
2023/07/01 04:16:46;;;;;;;10.33;9.37;;;;;;;20.28;84.78;100236.00;4833258;29;21035;-73
2023/07/01 04:19:17;;;;;;;10.70;9.80;;;;;;;20.45;81.48;100237.63;4828157;29;20979;-73
2023/07/01 04:21:46;;;;;;;9.93;8.50;;;;;;;20.64;80.69;100241.34;4833506;29;20419;-72
2023/07/01 04:24:15;;;;;;;10.77;9.77;;;;;;;20.52;80.36;100240.88;4838204;29;20443;-73
2023/07/01 04:26:44;;;;;;;10.23;9.23;;;;;;;19.91;82.20;100230.13;4826935;29;20568;-74
2023/07/01 04:29:15;;;;;;;14.50;11.17;;;;;;;19.37;85.56;100225.25;4830805;29;20499;-73
2023/07/01 04:31:44;;;;;;;10.40;9.33;;;;;;;19.00;88.04;100213.78;4825156;29;20879;-73
2023/07/01 04:34:13;;;;;;;10.47;9.60;;;;;;;18.84;87.86;100214.84;4833161;29;20456;-72
2023/07/01 04:36:42;;;;;;;11.63;10.50;;;;;;;18.80;87.89;100213.75;4826657;29;20871;-73
2023/07/01 04:39:12;;;;;;;10.00;9.10;;;;;;;18.65;87.90;100201.69;4831677;29;20449;-74
2023/07/01 04:41:41;;;;;;;9.13;8.33;;;;;;;18.51;89.18;100218.88;4828712;29;20447;-73
2023/07/01 04:44:10;;;;;;;11.13;10.10;;;;;;;18.43;88.79;100209.28;4827528;29;20702;-73
2023/07/01 04:46:41;;;;;;;9.60;8.80;;;;;;;18.45;88.43;100209.81;4825628;29;21043;-73
2023/07/01 04:49:10;;;;;;;10.13;9.20;;;;;;;18.54;87.94;100210.97;4830795;29;20529;-73
2023/07/01 04:51:39;;;;;;;10.47;9.23;;;;;;;18.55;88.11;100218.09;4829864;29;20954;-71
2023/07/01 04:54:08;;;;;;;9.83;9.13;;;;;;;18.83;86.60;100207.75;4826910;29;20449;-72
2023/07/01 04:56:37;;;;;;;10.57;9.60;;;;;;;19.02;85.43;100206.09;4826072;29;20521;-72
2023/07/01 04:59:07;;;;;;;12.60;10.20;;;;;;;19.14;83.73;100209.38;4827091;29;20469;-72
2023/07/01 05:01:36;;;;;;;10.43;9.43;;;;;;;19.22;82.47;100210.78;4826186;29;20493;-73
2023/07/01 05:04:06;;;;;;;11.03;10.13;;;;;;;19.16;81.70;100206.38;4826585;29;20508;-72
2023/07/01 05:06:36;;;;;;;9.90;8.90;;;;;;;19.69;80.38;100210.44;4829324;29;21151;-72
2023/07/01 05:09:06;;;;;;;11.67;10.33;;;;;;;21.35;71.19;100214.13;4833259;29;20436;-72
2023/07/01 05:11:35;;;;;;;8.67;7.87;;;;;;;21.63;67.94;100213.31;4828767;29;20524;-74
2023/07/01 05:14:04;;;;;;;9.40;8.57;;;;;;;21.18;69.42;100211.84;4832495;29;20442;-72
2023/07/01 05:16:33;;;;;;;9.67;8.67;;;;;;;21.17;69.96;100209.34;4830198;29;20814;-73
2023/07/01 05:19:02;;;;;;;8.40;7.60;;;;;;;20.96;70.56;100208.66;4834280;29;20413;-73
2023/07/01 05:21:34;;;;;;;9.07;8.27;;;;;;;21.27;69.03;100219.44;4826365;29;20468;-72
2023/07/01 05:24:04;;;;;;;10.30;9.40;;;;;;;22.34;66.65;100206.97;4827201;29;20408;-72
2023/07/01 05:26:33;;;;;;;9.37;8.07;;;;;;;23.78;60.52;100207.94;4828055;29;20453;-72
2023/07/01 05:29:02;;;;;;;10.40;7.67;;;;;;;24.58;56.81;100210.97;4828935;29;20439;-74
2023/07/01 05:31:31;;;;;;;7.90;7.10;;;;;;;24.54;55.99;100212.72;4829635;29;20854;-74
2023/07/01 05:34:00;;;;;;;7.80;7.10;;;;;;;23.81;55.45;100208.16;4823850;29;20452;-72
2023/07/01 05:36:29;;;;;;;11.33;7.97;;;;;;;23.19;58.73;100208.75;4829450;29;20514;-74
2023/07/01 05:38:59;;;;;;;8.90;8.00;;;;;;;23.53;57.08;100214.75;4825147;29;20478;-71
2023/07/01 05:41:29;;;;;;;8.13;7.40;;;;;;;23.04;59.20;100207.06;4832993;29;20433;-73
2023/07/01 05:43:58;;;;;;;10.60;8.20;;;;;;;22.09;62.28;100207.31;4823281;29;20915;-71
2023/07/01 05:46:29;;;;;;;9.17;8.27;;;;;;;21.51;63.99;100215.63;4834219;29;20467;-72
2023/07/01 05:48:59;;;;;;;8.23;7.60;;;;;;;21.21;66.76;100211.25;4839113;29;20470;-73
2023/07/01 05:51:28;;;;;;;8.83;8.13;;;;;;;21.08;67.56;100206.38;4834253;29;20445;-73
2023/07/01 05:53:59;;;;;;;8.93;8.07;;;;;;;21.16;68.30;100204.97;4845820;29;20454;-73
2023/07/01 05:56:29;;;;;;;8.80;7.67;;;;;;;21.19;67.20;100202.47;4845104;29;20452;-74
2023/07/01 05:58:57;;;;;;;7.70;7.00;;;;;;;21.31;68.24;100204.00;4844507;29;20472;-74
2023/07/01 06:01:27;;;;;;;8.87;7.83;;;;;;;21.52;65.38;100206.28;4837878;29;20420;-73
2023/07/01 06:03:56;;;;;;;9.00;7.30;;;;;;;21.57;65.26;100197.97;4823529;29;20988;-71
2023/07/01 06:06:25;;;;;;;8.23;7.43;;;;;;;21.33;66.07;100201.78;4836329;29;20460;-73
2023/07/01 06:08:54;;;;;;;9.13;6.97;;;;;;;21.38;65.91;100202.56;4822858;29;20473;-73
2023/07/01 06:11:24;;;;;;;8.60;7.07;;;;;;;21.11;66.57;100203.03;4820689;29;20454;-73
2023/07/01 06:13:53;;;;;;;12.03;7.40;;;;;;;21.15;65.97;100206.09;4824136;29;20423;-72
2023/07/01 06:16:22;;;;;;;6.37;5.70;;;;;;;20.96;65.09;100203.16;4825360;29;20430;-72
2023/07/01 06:18:51;;;;;;;6.90;6.17;;;;;;;21.04;66.13;100199.81;4826475;29;20441;-71
2023/07/01 06:21:21;;;;;;;8.33;7.30;;;;;;;21.49;64.69;100200.53;4829813;29;20445;-72
2023/07/01 06:23:50;;;;;;;7.23;6.63;;;;;;;21.63;64.18;100191.31;4827003;29;20441;-72
2023/07/01 06:26:19;;;;;;;8.13;6.47;;;;;;;21.75;64.30;100196.38;4834697;29;20503;-71
2023/07/01 06:28:51;;;;;;;8.37;7.40;;;;;;;21.72;62.88;100196.97;4889982;23;20517;-83
2023/07/01 06:31:22;;;;;;;8.90;6.40;;;;;;;21.63;63.72;100198.75;4854898;29;20415;-83
2023/07/01 06:33:54;;;;;;;9.40;6.60;;;;;;;21.81;63.85;100194.41;4851855;29;20461;-84
2023/07/01 06:36:29;;;;;;;6.77;6.27;;;;;;;21.91;63.92;100189.59;4863542;29;20436;-85
2023/07/01 06:39:06;;;;;;;6.80;6.20;;;;;;;21.61;61.92;100196.28;4859801;29;20490;-84
2023/07/01 06:41:38;;;;;;;7.80;6.30;;;;;;;21.65;62.25;100188.22;4851988;23;20466;-67
2023/07/01 06:44:12;;;;;;;8.47;6.50;;;;;;;21.77;62.05;100194.16;4823619;29;20473;-65
2023/07/01 06:46:41;;;;;;;5.73;5.17;;;;;;;21.97;62.61;100185.69;4804173;29;20530;-67
2023/07/01 06:49:10;;;;;;;6.00;5.40;;;;;;;22.15;60.32;100180.50;4802559;29;20486;-68
2023/07/01 06:51:39;;;;;;;6.03;5.33;;;;;;;22.17;61.00;100181.88;4789052;29;20535;-68
2023/07/01 06:54:08;;;;;;;7.00;6.13;;;;;;;22.47;60.58;100184.19;4793880;29;20471;-69
2023/07/01 06:56:37;;;;;;;6.17;5.57;;;;;;;22.40;57.98;100180.16;4792525;29;20462;-69
2023/07/01 06:59:06;;;;;;;5.70;4.67;;;;;;;22.44;58.29;100178.44;4794901;29;20486;-70
2023/07/01 07:01:36;;;;;;;5.00;4.17;;;;;;;22.40;59.08;100171.91;4796526;29;20959;-67
2023/07/01 07:04:07;;;;;;;6.90;4.53;;;;;;;22.36;57.32;100171.69;4793532;29;20451;-69
2023/07/01 07:06:36;;;;;;;11.70;5.80;;;;;;;22.42;57.77;100169.63;4794517;29;21056;-68
2023/07/01 07:09:06;;;;;;;5.67;5.17;;;;;;;22.50;57.22;100163.47;4810229;29;20460;-69
2023/07/01 07:11:35;;;;;;;5.90;4.40;;;;;;;22.44;57.59;100156.41;4794444;29;20436;-68
2023/07/01 07:14:04;;;;;;;6.67;5.27;;;;;;;22.68;58.04;100168.16;4791682;29;20452;-69
2023/07/01 07:16:36;;;;;;;6.27;5.10;;;;;;;22.64;56.05;100161.59;4790006;29;20561;-67
2023/07/01 07:19:06;;;;;;;6.73;5.23;;;;;;;22.51;55.14;100167.88;4796147;29;20443;-71
2023/07/01 07:21:34;;;;;;;6.73;5.20;;;;;;;22.51;55.23;100162.38;4794919;29;20502;-69
2023/07/01 07:24:04;;;;;;;9.43;5.37;;;;;;;22.79;55.03;100157.81;4788636;29;21891;-69
2023/07/01 07:26:33;;;;;;;6.40;5.80;;;;;;;22.98;54.69;100160.53;4788736;29;20544;-69
2023/07/01 07:29:03;;;;;;;4.70;4.37;;;;;;;22.95;52.18;100157.25;4797529;29;20457;-71
2023/07/01 07:31:32;;;;;;;6.30;4.73;;;;;;;23.04;52.70;100159.34;4793959;29;20948;-68
2023/07/01 07:34:02;;;;;;;4.93;4.43;;;;;;;23.12;50.52;100150.34;4810915;29;20474;-65
2023/07/01 07:36:31;;;;;;;5.37;4.87;;;;;;;22.92;49.77;100152.34;4797571;29;20557;-72
2023/07/01 07:39:00;;;;;;;5.13;3.70;;;;;;;22.92;48.71;100152.34;4790492;29;20439;-68
2023/07/01 07:41:29;;;;;;;8.73;4.07;;;;;;;22.69;48.83;100146.91;4793435;29;20777;-69
2023/07/01 07:44:01;;;;;;;7.37;4.07;;;;;;;22.88;47.96;100148.56;4790993;29;20716;-68
2023/07/01 07:46:30;;;;;;;6.10;3.37;;;;;;;22.87;46.74;100144.16;4797243;29;20446;-71
2023/07/01 07:48:59;;;;;;;5.83;3.10;;;;;;;23.06;46.63;100146.03;4794675;29;20997;-69
2023/07/01 07:51:29;;;;;;;6.03;3.57;;;;;;;23.28;46.82;100137.91;4797023;29;20439;-72
2023/07/01 07:53:58;;;;;;;3.53;3.07;;;;;;;23.56;45.80;100139.59;4800134;29;20534;-70
2023/07/01 07:56:28;;;;;;;4.07;3.67;;;;;;;23.69;44.82;100130.50;4790271;29;20547;-72
2023/07/01 07:58:57;;;;;;;4.30;3.40;;;;;;;23.48;43.27;100134.00;4790034;29;20955;-71
2023/07/01 08:01:26;;;;;;;3.33;3.00;;;;;;;23.47;44.24;100141.44;4799824;29;20451;-70
2023/07/01 08:03:55;;;;;;;4.30;2.77;;;;;;;23.37;41.84;100136.09;4795727;29;20439;-72
2023/07/01 08:06:24;;;;;;;11.37;4.13;;;;;;;23.02;42.06;100139.50;4791756;29;20884;-71
2023/07/01 08:08:55;;;;;;;9.23;3.30;;;;;;;22.84;42.74;100133.72;4797421;29;20548;-71
2023/07/01 08:11:24;;;;;;;3.63;3.33;;;;;;;23.15;42.81;100131.22;4797453;29;20478;-71
2023/07/01 08:13:53;;;;;;;3.30;3.00;;;;;;;23.21;42.29;100123.69;4794978;29;20435;-72
2023/07/01 08:16:22;;;;;;;4.67;2.60;;;;;;;23.19;41.65;100128.72;4801111;29;20457;-71
2023/07/01 08:18:51;;;;;;;6.20;3.17;;;;;;;23.19;41.05;100125.94;4789769;29;20931;-71
2023/07/01 08:21:20;;;;;;;4.63;3.27;;;;;;;23.45;41.88;100118.84;4795444;29;21031;-71
2023/07/01 08:23:49;;;;;;;5.60;3.17;;;;;;;23.66;41.17;100116.50;4791990;29;20435;-71
2023/07/01 08:26:19;;;;;;;3.50;3.10;;;;;;;23.67;42.43;100121.69;4794869;29;20994;-72
2023/07/01 08:28:48;;;;;;;4.13;3.10;;;;;;;23.57;41.72;100118.34;4791274;29;20475;-71
2023/07/01 08:31:18;;;;;;;3.37;3.00;;;;;;;23.64;42.15;100114.03;4793432;29;20869;-71
2023/07/01 08:33:47;;;;;;;4.70;3.70;;;;;;;23.69;42.37;100111.16;4795275;29;20443;-70
2023/07/01 08:36:16;;;;;;;4.93;3.10;;;;;;;23.68;41.07;100114.22;4788022;29;20451;-71
2023/07/01 08:38:45;;;;;;;7.33;3.07;;;;;;;23.44;40.14;100103.34;4793192;29;20879;-68
2023/07/01 08:41:16;;;;;;;4.13;3.13;;;;;;;23.71;40.79;100106.16;4792935;29;20478;-71
2023/07/01 08:43:50;;;;;;;8.93;2.50;;;;;;;23.92;39.55;100105.69;4792768;29;20862;-71
2023/07/01 08:46:19;;;;;;;7.43;3.20;;;;;;;24.16;39.13;100097.97;4804015;29;20446;-72
2023/07/01 08:48:49;;;;;;;4.70;2.77;;;;;;;24.27;40.78;100109.66;4797403;29;20479;-72
2023/07/01 08:51:22;;;;;;;6.30;3.47;;;;;;;24.46;39.42;100105.59;4796174;29;20451;-68
2023/07/01 08:53:54;;;;;;;8.43;4.47;;;;;;;24.49;41.01;100095.88;4792255;29;20454;-71
2023/07/01 08:56:24;;;;;;;6.40;3.50;;;;;;;24.65;40.26;100092.41;4794201;29;20479;-71
2023/07/01 08:58:54;;;;;;;5.60;3.57;;;;;;;24.71;40.06;100078.44;4795055;29;20518;-71
2023/07/01 09:01:23;;;;;;;3.50;3.20;;;;;;;24.42;40.95;100085.22;4798484;29;20440;-71
2023/07/01 09:03:53;;;;;;;3.57;3.23;;;;;;;24.65;40.28;100089.63;4789985;29;20455;-70
2023/07/01 09:06:23;;;;;;;4.00;3.60;;;;;;;24.56;40.25;100079.63;4791930;29;20439;-71
2023/07/01 09:08:54;;;;;;;4.00;3.67;;;;;;;24.50;39.84;100073.41;4796881;29;20497;-72
2023/07/01 09:11:23;;;;;;;5.67;3.30;;;;;;;24.78;39.75;100071.34;4792370;29;20508;-69
2023/07/01 09:13:57;;;;;;;6.30;4.73;;;;;;;24.92;39.64;100076.81;4789991;29;20475;-71
2023/07/01 09:16:34;;;;;;;6.73;3.53;;;;;;;24.55;39.85;100073.28;4790965;29;20532;-71
2023/07/01 09:19:10;;;;;;;4.13;3.73;;;;;;;24.71;40.72;100070.13;4788073;29;20947;-69
2023/07/01 09:21:41;;;;;;;3.70;3.33;;;;;;;24.78;39.37;100074.09;4793524;29;20442;-71
2023/07/01 09:24:12;;;;;;;4.50;4.07;;;;;;;24.68;39.35;100066.06;4785219;29;20443;-70
2023/07/01 09:26:41;;;;;;;4.20;3.57;;;;;;;24.88;39.52;100070.28;4787758;29;20474;-70
2023/07/01 09:29:15;;;;;;;7.70;4.47;;;;;;;24.98;39.17;100067.25;4796607;29;20697;-71
2023/07/01 09:31:47;;;;;;;4.80;3.50;;;;;;;25.10;39.17;100056.41;4796156;29;20885;-70
2023/07/01 09:34:20;;;;;;;4.53;2.90;;;;;;;25.21;39.36;100041.16;4803248;29;20460;-72
2023/07/01 09:36:50;;;;;;;4.90;3.60;;;;;;;25.39;39.00;100045.59;4788897;29;20466;-72
2023/07/01 09:39:32;;;;;;;5.60;3.40;;;;;;;25.45;38.66;100029.66;4788984;29;20536;-71
2023/07/01 09:42:05;;;;;;;3.77;3.37;;;;;;;25.51;38.81;100036.69;4791526;29;20527;-71
2023/07/01 09:44:38;;;;;;;4.60;3.30;;;;;;;25.58;38.09;100030.69;4789828;29;20447;-69
2023/07/01 09:47:07;;;;;;;5.37;3.00;;;;;;;25.70;37.90;100025.34;4791923;29;20545;-70
2023/07/01 09:49:44;;;;;;;5.60;2.97;;;;;;;25.77;39.05;100017.34;4789429;29;20836;-70
2023/07/01 09:52:13;;;;;;;6.43;3.73;;;;;;;25.80;38.32;100019.50;4794720;29;20447;-71
2023/07/01 09:54:42;;;;;;;6.73;4.07;;;;;;;26.03;38.65;100018.19;4793417;29;20559;-72
2023/07/01 09:57:12;;;;;;;5.20;3.90;;;;;;;25.81;38.45;100019.16;4789435;29;20515;-71
2023/07/01 09:59:42;;;;;;;8.93;3.07;;;;;;;25.80;38.00;100019.50;4796015;29;20800;-69
2023/07/01 10:02:12;;;;;;;8.20;3.33;;;;;;;25.98;37.61;100015.59;4791246;29;20471;-71
2023/07/01 10:04:41;;;;;;;7.60;3.60;;;;;;;26.33;37.95;100010.88;4796985;29;20651;-70
2023/07/01 10:07:10;;;;;;;8.43;4.77;;;;;;;26.26;38.65;100011.38;4791586;29;20529;-70
2023/07/01 10:09:44;;;;;;;4.80;4.27;;;;;;;25.76;37.81;100001.84;4792441;29;20471;-69
2023/07/01 10:12:17;;;;;;;8.00;4.77;;;;;;;25.60;38.86;100009.03;4790083;29;20453;-69
2023/07/01 10:14:51;;;;;;;5.83;3.43;;;;;;;25.86;37.95;99998.78;4790670;29;20436;-69
2023/07/01 10:17:20;;;;;;;9.77;4.00;;;;;;;26.37;37.69;99996.03;4790175;29;20437;-70
2023/07/01 10:19:50;;;;;;;5.90;3.50;;;;;;;25.77;37.47;99993.22;4790972;29;20443;-71
2023/07/01 10:22:23;;;;;;;3.87;3.30;;;;;;;25.11;39.42;99983.28;4797103;29;20460;-70
2023/07/01 10:24:57;;;;;;;4.07;3.63;;;;;;;25.57;38.80;99981.94;4791325;29;20500;-70
2023/07/01 10:28:04;;;;;;;4.20;3.80;;;;;;;25.47;38.54;99977.50;4793683;29;20463;-70
2023/07/01 10:31:13;;;;;;;8.03;6.03;;;;;;;25.61;38.77;99964.34;4797006;29;20553;-71
2023/07/01 10:33:56;;;;;;;5.93;3.63;;;;;;;26.12;39.26;99963.56;4792999;29;20451;-70
2023/07/01 10:36:25;;;;;;;6.13;4.10;;;;;;;26.27;38.99;99965.84;4788192;29;20455;-69
2023/07/01 10:39:31;;;;;;;5.57;4.00;;;;;;;26.99;37.24;99962.22;4788144;29;20500;-70
2023/07/01 10:42:00;;;;;;;4.40;3.50;;;;;;;27.31;36.24;99946.84;4788342;29;20489;-70
2023/07/01 10:44:29;;;;;;;10.37;9.27;;;;;;;27.21;36.54;99959.16;4795530;29;20443;-71
2023/07/01 10:47:18;;;;;;;9.73;5.13;;;;;;;27.32;36.82;99947.66;4797199;29;20555;-72
2023/07/01 10:50:05;;;;;;;6.83;3.23;;;;;;;27.55;36.15;99943.44;4788762;29;20511;-69
2023/07/01 10:52:55;;;;;;;5.83;4.13;;;;;;;27.32;37.08;99940.16;4791231;29;20447;-68
2023/07/01 10:55:43;;;;;;;8.17;6.80;;;;;;;27.18;36.27;99932.06;4788020;29;20535;-70
2023/07/01 10:58:21;;;;;;;4.73;4.23;;;;;;;26.90;36.87;99930.91;4787740;29;20468;-69
2023/07/01 11:00:52;;;;;;;5.53;4.17;;;;;;;27.40;37.14;99932.94;4796080;29;20434;-69
2023/07/01 11:03:56;;;;;;;4.27;3.67;;;;;;;27.24;36.20;99932.69;4789907;29;20425;-68
2023/07/01 11:06:25;;;;;;;5.03;3.40;;;;;;;26.42;37.88;99925.69;4792867;29;20489;-69
2023/07/01 11:08:56;;;;;;;5.43;4.40;;;;;;;26.79;38.65;99922.13;4794105;29;20898;-72
2023/07/01 11:11:28;;;;;;;4.50;4.10;;;;;;;27.04;37.00;99923.16;4789895;29;20560;-69
2023/07/01 11:14:00;;;;;;;4.53;4.13;;;;;;;27.42;36.34;99930.59;4793176;29;20509;-71
2023/07/01 11:16:29;;;;;;;4.83;4.03;;;;;;;27.22;36.42;99921.91;4796699;29;20817;-70
2023/07/01 11:19:00;;;;;;;5.10;3.90;;;;;;;27.27;36.95;99914.53;4786679;29;20438;-70
2023/07/01 11:21:31;;;;;;;5.00;3.80;;;;;;;26.97;37.16;99917.31;4788330;29;21069;-68
2023/07/01 11:24:03;;;;;;;9.57;5.00;;;;;;;27.63;36.76;99910.06;4793149;29;20467;-71
2023/07/01 11:26:35;;;;;;;5.30;4.70;;;;;;;28.15;37.04;99908.78;4811379;29;20570;-70
2023/07/01 11:29:09;;;;;;;6.70;4.67;;;;;;;27.65;36.57;99904.97;4812025;29;20443;-71
2023/07/01 11:31:39;;;;;;;6.00;4.00;;;;;;;27.24;37.38;99902.97;4788167;29;20471;-71
2023/07/01 11:34:10;;;;;;;6.40;4.57;;;;;;;26.74;38.07;99900.09;4793982;29;20449;-71
2023/07/01 11:36:41;;;;;;;5.13;4.03;;;;;;;26.68;38.59;99895.06;4788790;29;20891;-71